Go Pro

Onespan (OSPN) Institutional Ownership

Onespan logo
$16.54 0.00 (0.00%)
As of 08/28/2026 04:00 PM Eastern

Institutional Ownership Changes (13F Filings) for Onespan (NASDAQ:OSPN)

Current
Institutional Ownership
Percentage
95.52%
Number of
Institutional Buyers
(last 12 months)
113
Total
Institutional Inflows
(last 12 months)
$223.47M
Number of
Institutional Sellers
(last 12 months)
59
Total
Institutional Outflows
(last 12 months)
$60.12M
Get OSPN Insider Trade Alerts

Want to know when executives and insiders are buying or selling Onespan stock? Sign up for InsiderTrades.com's daily newsletter to get the latest insider transactions delivered to your inbox daily.

SMS is currently available in Australia, Belgium, Canada, France, Germany, Ireland, Italy, New Zealand, the Netherlands, Singapore, South Africa, Spain, Switzerland, the United Kingdom, and the United States. By entering your phone number and clicking the sign-up button, you agree to receive periodic text messages from MarketBeat at the phone number you submitted, including texts that may be sent using an automatic telephone dialing system. Message and data rates may apply. Message frequency will vary. Messages will consist of stock alerts, news stories, and partner advertisements/offers. Consent is not a condition of the purchase of any goods or services. Text HELP for help/customer support. Unsubscribe at any time by replying "STOP" to any text message that you receive from MarketBeat or by visiting our mailing preferences page. Read our full terms of service and privacy policy.
Skip Chart & View Institutional Buying and Selling Data

OSPN Institutional Buying and Selling by Quarter

Onespan Major Shareholders & Ownership History

Reporting DateMajor Shareholder NameShares HeldMarket Value% of PortfolioQuarterly Change in SharesOwnership in CompanyDetails
8/27/2026 Corient Private Wealth LP21,582$310K0.0%N/A0.059%
8/24/2026 California State Teachers Retirement System7,376$106K0.0%+256.8%0.020%
8/20/2026 Headlands Technologies LLC20,734$298K0.0%-48.2%0.056%
8/20/2026 Hennessy Advisors Inc.11,184$160K0.0%+6.6%0.030%
8/19/2026 Hsbc Holdings PLC15,528$221K0.0%N/A0.042%
8/18/2026 United Capital Financial Advisors LLC13,491$194K0.0%N/A0.037%
8/18/2026 Public Employees Retirement System of Ohio56,750$814K0.0%N/A0.154%
8/17/2026 Corient Private Wealth LP15,955$229K0.0%N/A0.043%
8/17/2026 Bank of America Corp DE62,332$894K0.0%N/A0.169%
8/14/2026 Hsbc Holdings PLC15,528$221K0.0%N/A0.042%
8/14/2026 Ancora Advisors LLC24,333$349K0.0%N/A0.066%
8/14/2026 Legal & General Group Plc2,177,532$31.25M0.0%N/A5.909%
8/13/2026 Sanctuary Advisors LLC14,899$214K0.0%N/A0.040%
8/13/2026 Globeflex Capital L P39,555$568K0.1%N/A0.107%
8/12/2026 Ieq Capital LLC113,914$1.64M0.0%N/A0.309%
8/11/2026 Allworth Financial LP2,528$36K0.0%N/A0.007%
8/10/2026 one8zero8 LLC13,000$187K0.0%N/A0.035%
8/10/2026 Empirical Asset Management LLC19,150$275K0.1%N/A0.052%
8/8/2026 Meeder Asset Management Inc.12,279$176K0.0%N/A0.033%
8/7/2026 BlackRock Inc.4,153,763$59.61M0.0%N/A11.272%
8/7/2026 Deutsche Bank AG40,058$575K0.0%N/A0.109%
8/6/2026 Global Retirement Partners LLC4,249$61K0.0%N/A0.011%
8/6/2026 Bank of New York Mellon Corp506,758$7.27M0.0%N/A1.367%
8/6/2026 State of Wyoming28,103$403K0.0%N/A0.076%
8/6/2026 GSA Capital Partners LLP109,204$1.57M0.1%N/A0.295%
7/7/2026 GAMMA Investing LLC6,960$100K0.0%+33.7%0.019%
5/19/2026 Bank of America Corp DE105,620$1.11M0.0%+29.4%0.285%
5/18/2026 Royal Bank of Canada13,491$142K0.0%-25.8%0.036%
5/16/2026 The Manufacturers Life Insurance Company10,145$107K0.0%-7.8%0.027%
5/16/2026 Quantinno Capital Management LP68,819$725K0.0%+206.1%0.186%
5/16/2026 Lazard Asset Management LLC352,643$3.71M0.0%+33.2%0.951%
5/14/2026 Renaissance Technologies LLC33,829$356K0.0%N/A0.091%
5/14/2026 Public Employees Retirement System of Ohio56,750$598K0.0%+15.6%0.153%
5/14/2026 Arrowstreet Capital Limited Partnership1,268,242$13.36M0.0%+94.8%3.421%
5/13/2026 First Trust Advisors LP147,691$1.56M0.0%-90.4%0.398%
5/7/2026 Commonwealth Financial Services LLC13,246$139K0.0%N/A0.036%
5/7/2026 Meeder Asset Management Inc.30,602$322K0.0%N/A0.083%
5/7/2026 Dimensional Fund Advisors LP1,464,524$15.42M0.0%+31.4%3.951%
5/5/2026 Bank of New York Mellon Corp504,141$5.31M0.0%+0.4%1.360%
5/5/2026 Sanctuary Advisors LLC12,217$129K0.0%N/A0.033%
Ready to give options a try? Your first trade (Ticker included) -INSIDE (Ad)

Tired of trying tactic after tactic when it comes to options trades... only to be met with market noise and stinging losses? Dave Aquino is giving away the exact 11-hour options strategy he uses in volatile markets. You get the plain English blueprint behind the strategy and the very same "rinse and repeat" ticker he's traded nearly 900 times with a 95.3% success rate. It's so simple to understand, you could trade it tomorrow.tc pixel

5/5/2026 Hillsdale Investment Management Inc.31,700$334K0.0%N/A0.086%
5/4/2026 Principal Financial Group Inc.116,415$1.23M0.0%+23.1%0.314%
4/28/2026 Abel Hall LLC10,159$107K0.0%N/A0.027%
4/27/2026 Y Intercept Hong Kong Ltd119,419$1.26M0.0%+858.5%0.322%
4/24/2026 Deprince Race & Zollo Inc.459,505$4.84M0.1%+19.7%1.226%
4/16/2026 SG Americas Securities LLC25,580$269K0.0%-6.2%0.068%
2/19/2026 Invesco Ltd.98,190$1.26M0.0%+4.5%0.258%
2/18/2026 State of Tennessee Department of Treasury12,058$142K0.0%-29.7%0.032%
2/18/2026 Lynrock Lake LP432,440$5.55M0.4%+14.8%1.137%
2/18/2026 XTX Topco Ltd36,197$465K0.0%N/A0.095%
2/18/2026 Numerai GP LLC173,910$2.23M0.3%N/A0.457%
2/18/2026 Millennium Management LLC1,211,659$15.56M0.0%+1,018.8%3.186%
2/18/2026 Balyasny Asset Management L.P.53,393$686K0.0%N/A0.140%
2/17/2026 Schonfeld Strategic Advisors LLC14,528$187K0.0%N/A0.038%
2/17/2026 AQR Capital Management LLC237,125$3.05M0.0%-31.2%0.624%
2/17/2026 Lazard Asset Management LLC264,828$3.40M0.0%+0.8%0.696%
2/17/2026 Kovack Advisors Inc.166,850$2.14M0.1%+21.9%0.439%
2/17/2026 Amundi18,463$237K0.0%+10.0%0.049%
2/17/2026 Price T Rowe Associates Inc. MD57,019$733K0.0%+16.9%0.150%
2/17/2026 Scalar Gauge Management LLC41,641$535K0.4%-80.6%0.109%
2/17/2026 Public Employees Retirement System of Ohio49,100$630K0.0%+98.4%0.129%
2/17/2026 Russell Investments Group Ltd.385,281$4.95M0.0%+76.9%1.013%
2/17/2026 ExodusPoint Capital Management LP124,960$1.60M0.0%N/A0.329%
2/17/2026 Royal Bank of Canada18,190$234K0.0%-65.8%0.048%
2/16/2026 Squarepoint Ops LLC139,006$1.79M0.0%+214.4%0.366%
2/16/2026 Towarzystwo Funduszy Inwestycyjnych PZU SA2,000$26K0.0%+81.8%0.005%
2/16/2026 Verition Fund Management LLC41,257$530K0.0%-64.4%0.108%
2/16/2026 Mariner LLC58,815$755K0.0%-7.6%0.155%
2/16/2026 Kennedy Capital Management LLC188,826$2.43M0.1%-0.6%0.497%
2/16/2026 Barclays PLC56,246$722K0.0%+10.6%0.148%
2/16/2026 Bridge City Capital LLC28,579$367K0.1%+31.0%0.075%
2/13/2026 Kestra Advisory Services LLC8,859$114K0.0%N/A0.023%
2/13/2026 The Manufacturers Life Insurance Company 11,006$141K0.0%-8.3%0.029%
2/13/2026 Archon Capital Management LLC118,551$1.52M0.9%N/A0.312%
2/13/2026 CANADA LIFE ASSURANCE Co377,053$4.84M0.0%+5.6%0.991%
2/13/2026 Neuberger Berman Group LLC1,572,594$20.20M0.0%-0.6%4.135%
2/13/2026 Jacobs Levy Equity Management Inc.649,202$8.34M0.0%+97.2%1.707%
2/13/2026 First Trust Advisors LP1,536,260$19.73M0.0%-28.3%4.040%
2/13/2026 Headlands Technologies LLC19,706$253K0.0%+85.6%0.052%
2/13/2026 State Street Corp1,339,388$17.20M0.0%+2.1%3.522%
2/13/2026 Martingale Asset Management L P87,378$1.12M0.0%-36.2%0.230%
2/13/2026 UBS AM a distinct business unit of UBS ASSET MANAGEMENT AMERICAS LLC73,210$940K0.0%+9.3%0.193%
2/13/2026 Wells Fargo & Company MN47,237$607K0.0%+38.8%0.124%
2/12/2026 Advisors Asset Management Inc.6,470$83K0.0%+12,342.3%0.017%
2/12/2026 HRT Financial LP90,885$1.17M0.0%N/A0.239%
2/12/2026Brooklyn Investment Group67,300$872K0.0%N/A0.177%
2/12/2026 Dimensional Fund Advisors LP1,114,876$14.32M0.0%+6.1%2.932%
2/12/2026 Integrated Quantitative Investments LLC22,630$291K0.1%+10.9%0.060%
2/12/2026 Ensign Peak Advisors Inc4,907$63K0.0%-77.1%0.013%
2/12/2026 IQ EQ FUND MANAGEMENT IRELAND Ltd157,801$2.03M0.1%+40.8%0.415%
Your book attached (Ad)

Bill Poulos is giving away his 'Safe Trade Options Formula' book for free - but only for a limited time through a temporary download link. He plans to charge for it soon. Download your copy now and lock it in at no cost, regardless of future pricing.tc pixel

Download the Safe Trade Options Formula book for free before access closes
2/12/2026 Campbell & CO Investment Adviser LLC26,492$340K0.0%-41.3%0.070%
2/12/2026 Clark Estates Inc. NY177,000$2.27M0.6%+13.5%0.465%
2/12/2026 Swiss National Bank71,800$922K0.0%+3.6%0.189%
2/12/2026Aviva PLC39,383$506K0.0%+25.9%0.104%
2/12/2026 Kovack Advisors Inc.166,850$2.17M0.1%+21.9%0.439%
2/12/2026 Nuveen LLC98,947$1.27M0.0%-67.6%0.260%
2/11/2026 CSM Advisors LLC299,320$3.84M0.1%+9.9%0.787%
2/11/2026 Inceptionr LLC18,169$233K0.1%N/A0.048%
2/11/2026 Deutsche Bank AG33,569$431K0.0%+4.7%0.088%
2/11/2026 LPL Financial LLC50,025$642K0.0%-2.6%0.132%


OSPN Institutional Ownership - Frequently Asked Questions

During the previous two years, 214 institutional investors and hedge funds held shares of Onespan. The most heavily invested institutionals were BlackRock Inc. ($59.61M), Vanguard Group Inc. ($52.36M), Ameriprise Financial Inc. ($33.36M), Legal & General Group Plc ($31.25M), MIRAE ASSET GLOBAL ETFS HOLDINGS Ltd. ($22.17M), Neuberger Berman Group LLC ($20.20M), and Simcoe Capital Management LLC ($18.97M).Learn more on Onespan's institutional investors.

95.52% of Onespan's stock is owned by institutional investors. Learn more on OSPN's institutional investor holdings.

Of the 184 institutional investors that purchased Onespan's stock in the last 24 months, the following investors and hedge funds have bought the highest volume of shares: BlackRock Inc. ($4.15M), Raymond James Financial Inc. ($2.51M), Legal & General Group Plc ($2.23M), Simcoe Capital Management LLC ($1.19M), Millennium Management LLC ($1.14M), Arrowstreet Capital Limited Partnership ($939.15K), and JPMorgan Chase & Co. ($708.02K).

Institutional investors have bought a total of 15,940,523 shares in the last 24 months. This purchase volume represents approximately $223.47M in transactions.

Of the 59 institutional investors that sold Onespan's stock in the last 24 months, the following investors and hedge funds have sold the highest volume of shares: First Trust Advisors LP ($1.99M), Arrowstreet Capital Limited Partnership ($339.75K), Nuveen LLC ($206.48K), Qube Research & Technologies Ltd ($189.54K), Vanguard Group Inc. ($178.03K), Scalar Gauge Management LLC ($173.36K), and Bank of America Corp DE ($146.65K).

Institutional investors have sold a total of 4,531,455 shares in the last 24 months. This volume of shares sold represents approximately $60.12M in transactions.



Institutional ownership data for NASDAQ:OSPN is compiled from quarterly 13F filings submitted to the U.S. Securities and Exchange Commission (SEC), with the most recent received on 8/27/2026. New 13F filings are added each quarter as they're published.
From Our Partners